Time;durP1;ratioP1;P1;durP2;ratioP2;P2;SDS_P1;SDS_P2;PMS_P1;PMS_P2;Temp;Humidity;BMP_temperature;BMP_pressure;BME280_temperature;BME280_humidity;BME280_pressure;Samples;Min_cycle;Max_cycle;Signal;HPM_P1;HPM_P2
2024/02/10 00:00:31;;;;;;;0.10;0.10;;;;;;;7.28;100.00;96817.09;6276110;22;20012;-75
2024/02/10 00:02:57;;;;;;;0.00;0.00;;;;;;;7.19;100.00;96805.50;6250877;22;20003;-76
2024/02/10 00:05:23;;;;;;;0.00;0.00;;;;;;;7.15;100.00;96818.94;6275351;22;20061;-75
2024/02/10 00:07:52;;;;;;;0.00;0.00;;;;;;;7.15;100.00;96822.47;6276195;22;19996;-74
2024/02/10 00:10:20;;;;;;;0.00;0.00;;;;;;;7.11;100.00;96826.97;6275321;22;19999;-74
2024/02/10 00:12:47;;;;;;;0.00;0.00;;;;;;;7.00;100.00;96836.63;6275519;22;20000;-75
2024/02/10 00:15:13;;;;;;;0.00;0.00;;;;;;;6.93;100.00;96839.06;6222215;22;20592;-75
2024/02/10 00:17:40;;;;;;;0.10;0.10;;;;;;;6.84;100.00;96830.97;6250075;22;20023;-74
2024/02/10 00:20:14;;;;;;;0.10;0.10;;;;;;;6.88;100.00;96858.28;6248051;22;20035;-75
2024/02/10 00:22:40;;;;;;;0.05;0.05;;;;;;;6.83;100.00;96851.13;6253024;22;20027;-75
2024/02/10 00:25:06;;;;;;;0.00;0.00;;;;;;;6.78;100.00;96849.38;6275291;22;20003;-74
2024/02/10 00:27:32;;;;;;;0.00;0.00;;;;;;;6.79;100.00;96855.59;6275220;22;20010;-73
2024/02/10 00:29:58;;;;;;;0.00;0.00;;;;;;;6.71;100.00;96842.88;6275614;22;20804;-74
2024/02/10 00:32:26;;;;;;;0.00;0.00;;;;;;;6.70;100.00;96844.81;6249608;22;20008;-75
2024/02/10 00:34:52;;;;;;;0.00;0.00;;;;;;;6.57;100.00;96843.09;6251042;22;20007;-74
2024/02/10 00:37:19;;;;;;;0.00;0.00;;;;;;;6.52;100.00;96841.38;6248996;22;20018;-73
2024/02/10 00:39:47;;;;;;;0.00;0.00;;;;;;;6.37;100.00;96840.03;6226193;22;20011;-75
2024/02/10 00:42:16;;;;;;;0.00;0.00;;;;;;;6.35;100.00;96845.00;6273358;22;20128;-74
2024/02/10 00:44:49;;;;;;;0.00;0.00;;;;;;;6.24;100.00;96846.47;6249790;22;20024;-73
2024/02/10 00:47:14;;;;;;;0.10;0.10;;;;;;;6.20;100.00;96845.50;6274504;22;20083;-74
2024/02/10 00:49:40;;;;;;;0.10;0.10;;;;;;;6.24;100.00;96851.88;6275189;22;20011;-75
2024/02/10 00:52:08;;;;;;;0.00;0.00;;;;;;;6.26;100.00;96860.50;6275408;22;20006;-74
2024/02/10 00:54:34;;;;;;;0.00;0.00;;;;;;;6.15;100.00;96854.63;6275848;22;19999;-74
2024/02/10 00:57:00;;;;;;;0.10;0.10;;;;;;;6.09;100.00;96856.72;6249247;22;20056;-74
2024/02/10 00:59:26;;;;;;;0.00;0.00;;;;;;;6.03;100.00;96863.44;6276420;22;20369;-74
2024/02/10 01:01:52;;;;;;;0.00;0.00;;;;;;;6.01;100.00;96865.66;6278642;22;20004;-75
2024/02/10 01:04:21;;;;;;;0.00;0.00;;;;;;;6.02;100.00;96869.97;6276161;22;20079;-75
2024/02/10 01:06:53;;;;;;;0.10;0.10;;;;;;;6.03;100.00;96874.28;6250720;22;20008;-76
2024/02/10 01:09:18;;;;;;;0.00;0.00;;;;;;;5.96;100.00;96857.69;6251741;22;20299;-74
2024/02/10 01:11:47;;;;;;;0.00;0.00;;;;;;;6.16;100.00;96883.34;6276710;22;20018;-76
2024/02/10 01:14:13;;;;;;;0.10;0.10;;;;;;;6.07;100.00;96860.88;6252948;22;20350;-74
2024/02/10 01:16:48;;;;;;;0.00;0.00;;;;;;;6.07;100.00;96869.78;6226251;22;20003;-74
2024/02/10 01:19:51;;;;;;;0.00;0.00;;;;;;;6.03;100.00;96878.91;6253866;22;20330;-75
2024/02/10 01:22:38;;;;;;;0.00;0.00;;;;;;;5.77;100.00;96860.75;6273826;22;20319;-73
2024/02/10 01:25:04;;;;;;;0.00;0.00;;;;;;;5.69;100.00;96859.63;6275761;22;20022;-73
2024/02/10 01:27:32;;;;;;;0.00;0.00;;;;;;;5.59;100.00;96852.66;6275923;22;20025;-74
2024/02/10 01:30:05;;;;;;;0.10;0.10;;;;;;;5.68;100.00;96866.19;6274867;22;20015;-73
2024/02/10 01:32:30;;;;;;;0.00;0.00;;;;;;;5.58;100.00;96852.97;6275709;22;20004;-74
2024/02/10 01:34:56;;;;;;;0.00;0.00;;;;;;;5.42;100.00;96839.91;6270315;22;20445;-72
2024/02/10 01:37:22;;;;;;;0.00;0.00;;;;;;;5.55;100.00;96865.25;6248622;22;20012;-74
2024/02/10 01:39:53;;;;;;;0.10;0.10;;;;;;;5.45;100.00;96854.72;6271701;22;20000;-74
2024/02/10 01:42:20;;;;;;;0.00;0.00;;;;;;;5.39;100.00;96851.38;6274595;22;20010;-73
2024/02/10 01:44:45;;;;;;;0.00;0.00;;;;;;;5.36;100.00;96856.63;6251274;22;20024;-72
2024/02/10 01:47:13;;;;;;;0.00;0.00;;;;;;;5.34;100.00;96856.94;6274843;22;20537;-74
2024/02/10 01:49:39;;;;;;;0.00;0.00;;;;;;;5.30;100.00;96858.72;6274090;22;20011;-74
2024/02/10 01:52:06;;;;;;;0.10;0.10;;;;;;;5.30;100.00;96869.56;6275215;22;20007;-73
2024/02/10 01:54:32;;;;;;;0.00;0.00;;;;;;;5.24;100.00;96866.22;6250289;22;20769;-74
2024/02/10 01:56:58;;;;;;;0.10;0.10;;;;;;;5.24;100.00;96870.81;6274527;22;20004;-73
2024/02/10 01:59:24;;;;;;;0.00;0.00;;;;;;;5.24;100.00;96859.97;6247774;22;20011;-74
2024/02/10 02:01:49;;;;;;;0.00;0.00;;;;;;;5.18;100.00;96861.25;6251885;22;20008;-74
2024/02/10 02:04:15;;;;;;;0.10;0.10;;;;;;;5.12;100.00;96854.41;6273746;22;20092;-73
2024/02/10 02:06:42;;;;;;;0.00;0.00;;;;;;;5.02;100.00;96853.59;6277542;22;20330;-74
2024/02/10 02:09:08;;;;;;;0.00;0.00;;;;;;;5.10;100.00;96864.78;6274216;22;20012;-72
2024/02/10 02:11:48;;;;;;;0.00;0.00;;;;;;;5.04;100.00;96861.41;6223932;22;20019;-73
2024/02/10 02:14:16;;;;;;;0.00;0.00;;;;;;;5.03;100.00;96874.13;6249238;22;20478;-74
2024/02/10 02:16:46;;;;;;;0.10;0.10;;;;;;;5.00;100.00;96874.78;6273090;22;20365;-74
2024/02/10 02:19:13;;;;;;;0.00;0.00;;;;;;;5.00;100.00;96877.47;6274207;22;20007;-74
2024/02/10 02:21:42;;;;;;;0.00;0.00;;;;;;;5.01;100.00;96881.00;6276057;22;20007;-73
2024/02/10 02:24:07;;;;;;;0.00;0.00;;;;;;;4.90;100.00;96869.66;6270595;22;20050;-73
2024/02/10 02:26:33;;;;;;;0.00;0.00;;;;;;;4.90;100.00;96872.38;6250945;22;20007;-73
2024/02/10 02:28:58;;;;;;;0.00;0.00;;;;;;;4.99;100.00;96886.72;6248947;22;20090;-73
2024/02/10 02:31:25;;;;;;;0.00;0.00;;;;;;;4.92;100.00;96875.56;6249073;22;20008;-73
2024/02/10 02:33:51;;;;;;;0.00;0.00;;;;;;;4.93;100.00;96879.84;6250536;22;20010;-73
2024/02/10 02:36:18;;;;;;;0.00;0.00;;;;;;;4.85;100.00;96872.53;6278707;22;20003;-73
2024/02/10 02:38:47;;;;;;;0.00;0.00;;;;;;;4.87;100.00;96889.25;6276198;22;20067;-73
2024/02/10 02:41:15;;;;;;;0.00;0.00;;;;;;;4.87;100.00;96889.25;6275309;22;20046;-74
2024/02/10 02:43:40;;;;;;;0.00;0.00;;;;;;;4.89;100.00;96892.44;6250003;22;20065;-74
2024/02/10 02:46:06;;;;;;;0.10;0.10;;;;;;;4.96;100.00;96900.88;6224140;22;20028;-73
2024/02/10 02:48:35;;;;;;;0.00;0.00;;;;;;;4.99;100.00;96892.13;6224214;22;20012;-74
2024/02/10 02:51:03;;;;;;;0.00;0.00;;;;;;;4.96;100.00;96876.50;6247984;22;20079;-73
2024/02/10 02:53:31;;;;;;;0.00;0.00;;;;;;;5.11;100.00;96898.84;6250967;22;20013;-74
2024/02/10 02:55:58;;;;;;;0.00;0.00;;;;;;;5.12;100.00;96905.88;6271806;22;20007;-73
2024/02/10 02:58:23;;;;;;;0.00;0.00;;;;;;;5.14;100.00;96898.22;6274512;22;20453;-73
2024/02/10 03:00:49;;;;;;;0.10;0.10;;;;;;;5.29;100.00;96910.53;6274862;22;20004;-74
2024/02/10 03:03:16;;;;;;;0.10;0.10;;;;;;;5.39;100.00;96893.94;6249029;22;20158;-73
2024/02/10 03:05:42;;;;;;;0.10;0.10;;;;;;;5.51;100.00;96898.72;6223348;22;19992;-75
2024/02/10 03:08:08;;;;;;;0.00;0.00;;;;;;;5.64;100.00;96895.06;6249071;22;20018;-74
2024/02/10 03:10:33;;;;;;;0.00;0.00;;;;;;;5.72;100.00;96891.56;6250194;22;20007;-73
2024/02/10 03:12:58;;;;;;;0.00;0.00;;;;;;;5.80;100.00;96878.28;6248552;22;20014;-75
2024/02/10 03:15:25;;;;;;;0.03;0.03;;;;;;;5.91;100.00;96877.66;6274541;22;19999;-74
2024/02/10 03:17:53;;;;;;;0.00;0.00;;;;;;;6.00;100.00;96891.22;6275525;22;20334;-75
2024/02/10 03:20:23;;;;;;;0.00;0.00;;;;;;;6.09;100.00;96902.03;6247662;22;20004;-74
2024/02/10 03:23:01;;;;;;;0.00;0.00;;;;;;;6.16;100.00;96904.25;6271962;22;20007;-74
2024/02/10 03:25:27;;;;;;;0.00;0.00;;;;;;;6.20;100.00;96899.78;6274515;22;19996;-74
2024/02/10 03:27:53;;;;;;;0.00;0.00;;;;;;;6.28;100.00;96901.69;6248124;22;20015;-73
2024/02/10 03:30:19;;;;;;;0.00;0.00;;;;;;;6.34;100.00;96897.66;6274848;22;20078;-74
2024/02/10 03:32:45;;;;;;;0.00;0.00;;;;;;;6.23;100.00;96872.78;6247077;22;20061;-73
2024/02/10 03:35:11;;;;;;;0.00;0.00;;;;;;;6.45;100.00;96901.63;6250046;22;20095;-74
2024/02/10 03:37:37;;;;;;;0.00;0.00;;;;;;;6.46;100.00;96903.19;6273645;22;20000;-74
2024/02/10 03:40:09;;;;;;;0.00;0.00;;;;;;;6.49;100.00;96901.75;6249875;22;20019;-74
2024/02/10 03:42:36;;;;;;;0.00;0.00;;;;;;;6.50;100.00;96902.53;6227023;22;20004;-74
2024/02/10 03:45:01;;;;;;;0.10;0.10;;;;;;;6.60;100.00;96913.03;6249316;22;20003;-75
2024/02/10 03:47:27;;;;;;;0.10;0.10;;;;;;;6.56;100.00;96917.56;6273268;22;20015;-73
2024/02/10 03:49:52;;;;;;;0.00;0.00;;;;;;;6.46;100.00;96902.41;6275525;22;20034;-76
2024/02/10 03:52:17;;;;;;;0.00;0.00;;;;;;;6.45;100.00;96912.47;6247348;22;20079;-74
2024/02/10 03:54:43;;;;;;;0.00;0.00;;;;;;;6.43;100.00;96898.41;6249182;22;20035;-74
2024/02/10 03:57:08;;;;;;;0.00;0.00;;;;;;;6.49;100.00;96911.81;6276760;22;20004;-72
2024/02/10 03:59:35;;;;;;;0.00;0.00;;;;;;;6.42;100.00;96907.66;6248715;22;20465;-73
2024/02/10 04:02:01;;;;;;;0.10;0.10;;;;;;;6.45;100.00;96901.63;6251603;22;20504;-72
2024/02/10 04:04:28;;;;;;;0.10;0.10;;;;;;;6.53;100.00;96910.06;6273130;22;20015;-74
2024/02/10 04:06:53;;;;;;;0.00;0.00;;;;;;;6.62;100.00;96910.81;6277714;22;20008;-74
2024/02/10 04:09:20;;;;;;;0.00;0.00;;;;;;;6.68;100.00;96909.50;6275726;22;20063;-73
2024/02/10 04:11:46;;;;;;;0.00;0.00;;;;;;;6.67;100.00;96912.53;6249459;22;20421;-74
2024/02/10 04:14:20;;;;;;;0.00;0.00;;;;;;;6.70;100.00;96912.69;6253424;22;20050;-73
2024/02/10 04:16:52;;;;;;;0.00;0.00;;;;;;;6.68;100.00;96914.94;6251122;22;20052;-75
2024/02/10 04:19:19;;;;;;;0.00;0.00;;;;;;;6.66;100.00;96921.81;6279209;22;20487;-73
2024/02/10 04:21:46;;;;;;;0.00;0.00;;;;;;;6.64;100.00;96919.41;6248103;22;20094;-73
2024/02/10 04:24:16;;;;;;;0.00;0.00;;;;;;;6.68;100.00;96920.34;6254175;22;20246;-72
2024/02/10 04:26:46;;;;;;;0.00;0.00;;;;;;;6.62;100.00;96918.97;6275940;22;20042;-73
2024/02/10 04:29:14;;;;;;;0.00;0.00;;;;;;;6.66;100.00;96922.63;6278515;22;20007;-74
2024/02/10 04:31:40;;;;;;;0.03;0.03;;;;;;;6.69;100.00;96923.88;6275235;22;20018;-74
2024/02/10 04:34:06;;;;;;;0.00;0.00;;;;;;;6.69;100.00;96924.69;6252718;22;20011;-73
2024/02/10 04:36:35;;;;;;;0.00;0.00;;;;;;;6.72;100.00;96934.09;6249044;22;19991;-73
2024/02/10 04:39:03;;;;;;;0.00;0.00;;;;;;;6.66;100.00;96928.03;6276426;22;20012;-74
2024/02/10 04:41:31;;;;;;;0.00;0.00;;;;;;;6.64;100.00;96927.56;6278706;22;19999;-74
2024/02/10 04:43:56;;;;;;;0.00;0.00;;;;;;;6.66;100.00;96928.03;6278577;22;20017;-72
2024/02/10 04:46:25;;;;;;;0.00;0.00;;;;;;;6.61;100.00;96922.78;6224947;22;20023;-74
2024/02/10 04:49:03;;;;;;;0.00;0.00;;;;;;;6.67;100.00;96935.06;6272095;22;20419;-74
2024/02/10 04:51:28;;;;;;;0.00;0.00;;;;;;;6.72;100.00;96934.88;6251813;22;20334;-74
2024/02/10 04:53:53;;;;;;;0.00;0.00;;;;;;;6.59;100.00;96911.47;6249147;22;20024;-73
2024/02/10 04:56:19;;;;;;;0.00;0.00;;;;;;;6.78;100.00;96935.50;6250719;22;20415;-74
2024/02/10 04:58:50;;;;;;;0.10;0.10;;;;;;;6.81;100.00;96932.13;6273578;22;20010;-74
2024/02/10 05:01:19;;;;;;;0.00;0.00;;;;;;;6.84;100.00;96933.41;6252794;22;20008;-73
2024/02/10 05:03:46;;;;;;;0.10;0.10;;;;;;;6.87;100.00;96928.09;6248443;22;20458;-72
2024/02/10 05:06:11;;;;;;;0.00;0.00;;;;;;;6.88;100.00;96927.00;6251072;22;20006;-74
2024/02/10 05:08:40;;;;;;;0.00;0.00;;;;;;;6.94;100.00;96935.75;6249236;22;20023;-74
2024/02/10 05:11:05;;;;;;;0.00;0.00;;;;;;;6.97;100.00;96943.25;6249042;22;20098;-74
2024/02/10 05:13:32;;;;;;;0.00;0.00;;;;;;;6.96;100.00;96936.22;6279166;22;20006;-73
2024/02/10 05:15:57;;;;;;;0.00;0.00;;;;;;;7.02;100.00;96944.97;6273230;22;20011;-74
2024/02/10 05:18:30;;;;;;;0.00;0.00;;;;;;;7.02;100.00;96948.47;6280721;22;20059;-74
2024/02/10 05:20:58;;;;;;;0.00;0.00;;;;;;;7.05;100.00;96952.47;6249504;22;20004;-73
2024/02/10 05:23:24;;;;;;;0.10;0.10;;;;;;;7.04;100.00;96948.97;6251962;22;20011;-73
2024/02/10 05:25:49;;;;;;;0.00;0.00;;;;;;;7.03;100.00;96952.78;6275498;22;20000;-73
2024/02/10 05:28:15;;;;;;;0.00;0.00;;;;;;;7.01;100.00;96955.06;6246584;22;20014;-73
2024/02/10 05:30:48;;;;;;;0.00;0.00;;;;;;;6.97;100.00;96952.19;6252314;22;20497;-74
2024/02/10 05:33:17;;;;;;;0.00;0.00;;;;;;;6.94;100.00;96949.34;6272146;22;20007;-73
2024/02/10 05:35:42;;;;;;;0.10;0.10;;;;;;;6.89;100.00;96952.22;6276737;22;20008;-72
2024/02/10 05:38:07;;;;;;;0.00;0.00;;;;;;;6.90;100.00;96964.69;6272761;22;20026;-74
2024/02/10 05:40:33;;;;;;;0.00;0.00;;;;;;;6.88;100.00;96966.91;6223072;22;20804;-74
2024/02/10 05:43:04;;;;;;;0.00;0.00;;;;;;;6.82;100.00;96969.81;6274264;22;20034;-73
2024/02/10 05:45:33;;;;;;;0.00;0.00;;;;;;;6.87;100.00;96970.78;6273126;22;20022;-73
2024/02/10 05:47:58;;;;;;;0.00;0.00;;;;;;;6.81;100.00;96965.50;6275585;22;20308;-73
2024/02/10 05:50:24;;;;;;;0.00;0.00;;;;;;;6.86;100.00;96958.31;6247324;22;20094;-73
2024/02/10 05:52:53;;;;;;;0.00;0.00;;;;;;;6.88;100.00;96948.72;6252976;22;20022;-72
2024/02/10 05:55:31;;;;;;;0.10;0.10;;;;;;;6.92;100.00;96948.84;6275240;22;20015;-74
2024/02/10 05:58:06;;;;;;;0.10;0.10;;;;;;;7.05;100.00;96964.13;6277180;22;19996;-73
2024/02/10 06:00:33;;;;;;;0.10;0.10;;;;;;;7.12;100.00;96972.56;6273816;22;20013;-74
2024/02/10 06:03:00;;;;;;;0.00;0.00;;;;;;;7.17;100.00;96974.31;6277172;22;20004;-73
2024/02/10 06:05:25;;;;;;;0.00;0.00;;;;;;;7.07;100.00;96959.16;6273054;22;20083;-74
2024/02/10 06:07:54;;;;;;;0.00;0.00;;;;;;;7.07;100.00;96959.16;6275260;22;20023;-74
2024/02/10 06:10:19;;;;;;;0.00;0.00;;;;;;;7.18;100.00;96975.09;6274551;22;20496;-73
2024/02/10 06:12:47;;;;;;;0.00;0.00;;;;;;;7.20;100.00;96981.00;6274405;22;20011;-73
2024/02/10 06:15:13;;;;;;;0.00;0.00;;;;;;;7.24;100.00;96987.38;6250748;22;20142;-74
2024/02/10 06:17:40;;;;;;;0.00;0.00;;;;;;;7.14;100.00;96975.75;6274772;22;20077;-74
2024/02/10 06:20:12;;;;;;;0.00;0.00;;;;;;;7.12;100.00;96983.41;6252296;22;20016;-74
2024/02/10 06:22:38;;;;;;;0.00;0.00;;;;;;;7.16;100.00;96997.94;6276421;22;19999;-74
2024/02/10 06:25:04;;;;;;;0.00;0.00;;;;;;;7.24;100.00;97000.94;6278245;22;20477;-73
2024/02/10 06:27:34;;;;;;;0.00;0.00;;;;;;;7.14;100.00;96981.19;6276672;22;20003;-74
2024/02/10 06:30:02;;;;;;;0.00;0.00;;;;;;;7.10;100.00;96984.91;6252514;22;20016;-75
2024/02/10 06:32:34;;;;;;;0.00;0.00;;;;;;;7.21;100.00;96996.19;6280468;22;20003;-76
2024/02/10 06:35:00;;;;;;;0.10;0.10;;;;;;;7.21;100.00;97001.59;6274389;22;20055;-76
2024/02/10 06:37:32;;;;;;;0.00;0.00;;;;;;;7.20;100.00;97010.88;6252330;22;20011;-75
2024/02/10 06:40:17;;;;;;;0.00;0.00;;;;;;;7.22;100.00;97003.22;6274700;22;20004;-74
2024/02/10 06:42:54;;;;;;;0.00;0.00;;;;;;;7.15;100.00;96988.22;6258762;22;20012;-74
2024/02/10 06:45:29;;;;;;;0.00;0.00;;;;;;;7.14;100.00;96981.19;6252934;22;20011;-76
2024/02/10 06:48:04;;;;;;;;;;;;;;;;;;;;;
2024/02/10 06:50:31;;;;;;;0.10;0.10;;;;;;;7.16;100.00;96987.06;6279303;22;20429;-74
2024/02/10 06:53:00;;;;;;;0.00;0.00;;;;;;;7.28;100.00;97001.91;6278115;22;20018;-74
2024/02/10 06:55:31;;;;;;;0.00;0.00;;;;;;;7.22;100.00;96992.34;6277646;22;20083;-74
2024/02/10 06:58:06;;;;;;;0.00;0.00;;;;;;;7.22;100.00;96992.34;6255461;22;20007;-74
2024/02/10 07:00:40;;;;;;;0.00;0.00;;;;;;;7.19;100.00;96990.28;6251584;22;20054;-75
2024/02/10 07:03:09;;;;;;;0.00;0.00;;;;;;;7.13;100.00;96984.25;6279647;22;20011;-75
2024/02/10 07:05:39;;;;;;;0.00;0.00;;;;;;;7.09;100.00;96984.06;6277833;22;20415;-74
2024/02/10 07:09:00;;;;;;;0.10;0.10;;;;;;;6.92;100.00;96962.44;6253202;22;20014;-74
2024/02/10 07:12:03;;;;;;;;;;;;;;;;;;;;;
2024/02/10 07:14:33;;;;;;;0.00;0.00;;;;;;;7.07;100.00;96983.63;6279377;22;20087;-73
2024/02/10 07:17:01;;;;;;;0.00;0.00;;;;;;;6.95;100.00;96967.19;6279749;22;20449;-74
2024/02/10 07:19:29;;;;;;;0.10;0.10;;;;;;;7.18;100.00;97013.13;6281257;22;20000;-74
2024/02/10 07:22:08;;;;;;;;;;;;;;;;;;;;;
2024/02/10 07:24:36;;;;;;;0.00;0.00;;;;;;;7.17;100.00;97017.78;6279802;22;20027;-74
2024/02/10 07:27:07;;;;;;;0.00;0.00;;;;;;;7.03;100.00;96995.47;6279172;22;20003;-74
2024/02/10 07:29:34;;;;;;;0.00;0.00;;;;;;;7.00;100.00;97002.34;6251104;22;19999;-75
2024/02/10 07:32:00;;;;;;;0.00;0.00;;;;;;;6.89;100.00;96985.63;6254050;22;20055;-75
2024/02/10 07:34:27;;;;;;;0.00;0.00;;;;;;;6.98;100.00;96994.53;6277097;22;20004;-74
2024/02/10 07:36:55;;;;;;;0.00;0.00;;;;;;;7.01;100.00;97009.38;6225626;22;20003;-74
2024/02/10 07:39:41;;;;;;;0.00;0.00;;;;;;;6.90;100.00;96994.56;6251257;22;19992;-75
2024/02/10 07:42:10;;;;;;;0.00;0.00;;;;;;;6.93;100.00;96999.34;6276417;22;20004;-74
2024/02/10 07:44:36;;;;;;;0.00;0.00;;;;;;;7.01;100.00;97011.28;6278732;22;20019;-76
2024/02/10 07:47:05;;;;;;;0.00;0.00;;;;;;;7.08;100.00;97017.81;6254325;22;20010;-74
2024/02/10 07:49:32;;;;;;;0.10;0.10;;;;;;;7.15;100.00;97026.25;6257858;22;20154;-74
2024/02/10 07:51:58;;;;;;;0.10;0.10;;;;;;;7.22;100.00;97030.38;6305357;22;20013;-74
2024/02/10 07:54:24;;;;;;;0.00;0.00;;;;;;;7.36;100.00;97024.72;6281651;22;20023;-74
2024/02/10 07:56:49;;;;;;;0.00;0.00;;;;;;;7.41;100.00;97028.03;6280207;22;19995;-74
2024/02/10 07:59:18;;;;;;;0.00;0.00;;;;;;;7.62;100.00;97054.47;6279715;22;20038;-74
2024/02/10 08:01:46;;;;;;;0.00;0.00;;;;;;;7.60;100.00;97013.22;6280704;22;20011;-72
2024/02/10 08:04:19;;;;;;;0.00;0.00;;;;;;;7.77;100.00;97034.88;6251899;22;20009;-72
2024/02/10 08:06:46;;;;;;;0.00;0.00;;;;;;;7.91;100.00;97044.69;6281718;22;20057;-76
2024/02/10 08:09:22;;;;;;;0.00;0.00;;;;;;;7.89;100.00;97034.16;6276613;22;20003;-73
2024/02/10 08:11:50;;;;;;;0.00;0.00;;;;;;;8.02;100.00;97045.91;6309498;22;20026;-74
2024/02/10 08:14:17;;;;;;;0.00;0.00;;;;;;;8.13;100.00;97055.28;6251948;22;20007;-74
2024/02/10 08:16:45;;;;;;;0.00;0.00;;;;;;;8.16;100.00;97056.50;6277648;22;20011;-74
2024/02/10 08:19:22;;;;;;;;;;;;;;;;;;;;;
2024/02/10 08:21:51;;;;;;;0.00;0.00;;;;;;;8.18;100.00;97052.34;6307981;22;20416;-75
2024/02/10 08:24:19;;;;;;;0.00;0.00;;;;;;;8.29;100.00;97043.75;6277210;22;20029;-74
2024/02/10 08:26:49;;;;;;;0.00;0.00;;;;;;;8.49;100.00;97070.19;6278384;22;20003;-74
2024/02/10 08:29:24;;;;;;;0.00;0.00;;;;;;;8.46;100.00;97040.91;6278575;22;20014;-73
2024/02/10 08:31:50;;;;;;;0.00;0.00;;;;;;;8.74;100.00;97064.84;6281779;22;20314;-75
2024/02/10 08:34:23;;;;;;;0.00;0.00;;;;;;;8.83;100.00;97045.69;6230161;22;20014;-74
2024/02/10 08:36:53;;;;;;;0.00;0.00;;;;;;;9.00;100.00;97061.84;6277842;22;20068;-75
2024/02/10 08:39:38;;;;;;;0.00;0.00;;;;;;;9.10;100.00;97060.63;6284884;22;20011;-75
2024/02/10 08:42:11;;;;;;;0.00;0.00;;;;;;;9.32;100.00;97081.19;6258021;22;20007;-75
2024/02/10 08:44:37;;;;;;;0.00;0.00;;;;;;;9.55;100.00;97073.38;6307809;22;20018;-74
2024/02/10 08:47:06;;;;;;;0.00;0.00;;;;;;;9.72;100.00;97057.91;6280487;22;20101;-75
2024/02/10 08:53:44;;;;;;;0.00;0.00;;;;;;;12.11;100.00;97087.69;6142054;23;20066;-75
2024/02/10 08:59:45;;;;;;;;;;;;;;;;;;;;;
2024/02/10 09:02:11;;;;;;;0.10;0.10;;;;;;;14.45;100.00;97059.56;6299948;22;20127;-74
2024/02/10 09:04:55;;;;;;;0.10;0.10;;;;;;;14.38;100.00;97067.72;6282524;22;20037;-75
2024/02/10 09:07:23;;;;;;;0.00;0.00;;;;;;;15.43;100.00;97061.38;6281270;22;19999;-75
2024/02/10 09:10:02;;;;;;;;;;;;;;;;;;;;;
2024/02/10 09:12:35;;;;;;;0.00;0.00;;;;;;;16.47;100.00;97069.59;6307536;22;20580;-75
2024/02/10 09:15:04;;;;;;;0.00;0.00;;;;;;;18.00;100.00;97057.63;6309965;22;20013;-74
2024/02/10 09:17:29;;;;;;;0.00;0.00;;;;;;;19.83;99.58;97083.66;6307029;22;19999;-75
2024/02/10 09:19:57;;;;;;;0.00;0.00;;;;;;;21.41;85.94;97079.06;6255120;22;20078;-73
2024/02/10 09:22:22;;;;;;;0.00;0.00;;;;;;;21.92;78.40;97092.19;6279392;22;20486;-73
2024/02/10 09:24:53;;;;;;;0.00;0.00;;;;;;;22.41;75.92;97100.09;6279889;22;20078;-74
2024/02/10 09:27:19;;;;;;;0.00;0.00;;;;;;;23.19;71.47;97094.19;6282397;22;20003;-73
2024/02/10 09:29:46;;;;;;;0.00;0.00;;;;;;;24.22;67.34;97089.34;6225493;22;20022;-74
2024/02/10 09:32:14;;;;;;;0.00;0.00;;;;;;;25.48;62.77;97087.81;6282129;22;20029;-73
2024/02/10 09:34:40;;;;;;;0.00;0.00;;;;;;;26.67;58.42;97083.88;6306179;22;20386;-75
2024/02/10 09:38:20;;;;;;;;;;;;;;;;;;;;;
2024/02/10 09:44:19;;;;;;;0.00;0.00;;;;;;;28.94;50.87;97078.31;6172798;23;20005;-76
2024/02/10 09:46:54;;;;;;;0.00;0.00;;;;;;;29.46;49.71;97060.69;6152932;23;20088;-75
2024/02/10 09:49:29;;;;;;;;;;;;;;;;;;;;;
2024/02/10 09:52:11;;;;;;;0.00;0.00;;;;;;;30.69;47.28;97084.31;6132413;23;20113;-75
2024/02/10 09:54:37;;;;;;;0.00;0.00;;;;;;;31.65;45.63;97076.75;6170878;22;20009;-76
2024/02/10 09:57:12;;;;;;;0.00;0.00;;;;;;;32.50;43.87;97073.00;6282777;22;20376;-75
2024/02/10 09:59:42;;;;;;;0.00;0.00;;;;;;;33.43;42.22;97071.34;6262375;22;20044;-74
2024/02/10 10:02:08;;;;;;;0.00;0.00;;;;;;;34.43;40.53;97063.19;6282959;22;20007;-74
2024/02/10 10:04:35;;;;;;;0.00;0.00;;;;;;;35.31;39.23;97062.34;6257825;22;20057;-74
2024/02/10 10:07:01;;;;;;;0.00;0.00;;;;;;;35.79;38.14;97060.50;6278852;22;20019;-74
2024/02/10 10:09:29;;;;;;;0.03;0.03;;;;;;;36.51;37.39;97070.09;6282213;22;20007;-76
2024/02/10 10:12:09;;;;;;;0.00;0.00;;;;;;;36.93;36.98;97064.44;6280317;22;19999;-80
2024/02/10 10:14:38;;;;;;;0.00;0.00;;;;;;;35.51;38.28;97052.00;6284499;22;20417;-76
2024/02/10 10:17:15;;;;;;;;;;;;;;;;;;;;;
2024/02/10 10:19:47;;;;;;;0.00;0.00;;;;;;;32.07;42.57;97050.09;6282327;22;20091;-77
2024/02/10 10:22:17;;;;;;;0.00;0.00;;;;;;;31.32;43.91;97049.50;6282197;22;20007;-77
2024/02/10 10:24:55;;;;;;;0.00;0.00;;;;;;;31.18;45.09;97061.59;6252510;22;20082;-74
2024/02/10 10:27:22;;;;;;;0.00;0.00;;;;;;;30.95;44.24;97064.03;6307842;22;20082;-74
2024/02/10 10:33:34;;;;;;;0.00;0.00;;;;;;;30.75;43.34;97048.56;6093042;23;20060;-73
2024/02/10 10:36:02;;;;;;;0.00;0.00;;;;;;;30.09;46.27;97078.50;6183819;23;20005;-73
2024/02/10 10:38:29;;;;;;;0.00;0.00;;;;;;;30.69;45.62;97067.41;6270443;22;20017;-75
2024/02/10 10:40:56;;;;;;;0.00;0.00;;;;;;;29.28;45.77;97059.50;6280925;22;20011;-74
2024/02/10 10:43:24;;;;;;;0.00;0.00;;;;;;;25.33;51.05;97053.91;6304389;22;20056;-74
2024/02/10 10:45:50;;;;;;;0.00;0.00;;;;;;;23.12;61.69;97058.09;6280420;22;20102;-74
2024/02/10 10:48:23;;;;;;;0.00;0.00;;;;;;;24.04;58.34;97050.75;6304356;22;20003;-76
2024/02/10 10:50:55;;;;;;;0.00;0.00;;;;;;;22.57;58.59;97055.63;6276337;22;20029;-76
2024/02/10 10:53:24;;;;;;;0.00;0.00;;;;;;;20.42;64.61;97054.16;6277444;22;20015;-75
2024/02/10 10:55:58;;;;;;;0.00;0.00;;;;;;;18.71;74.03;97083.53;6278389;22;20007;-74
2024/02/10 10:58:32;;;;;;;;;;;;;;;17.09;76.58;97079.69;6282284;22;20031;-75
2024/02/10 11:00:59;;;;;;;0.00;0.00;;;;;;;17.69;85.43;97071.84;6277879;22;19907;-75
2024/02/10 11:03:27;;;;;;;0.00;0.00;;;;;;;21.50;70.81;97069.41;6252661;22;20003;-76
2024/02/10 11:05:55;;;;;;;0.00;0.00;;;;;;;25.08;55.45;97072.22;6279069;22;20000;-74
2024/02/10 11:08:33;;;;;;;0.00;0.00;;;;;;;25.56;50.25;97067.56;6278100;22;20011;-73
2024/02/10 11:11:03;;;;;;;0.00;0.00;;;;;;;22.84;54.52;97082.56;6278601;22;20007;-75
2024/02/10 11:13:30;;;;;;;0.00;0.00;;;;;;;23.76;54.28;97078.13;6310400;22;20034;-74
2024/02/10 11:16:15;;;;;;;0.10;0.10;;;;;;;25.04;51.25;97060.34;6305237;22;19999;-72
2024/02/10 11:19:11;;;;;;;0.00;0.00;;;;;;;24.28;53.26;97070.06;6311351;22;20409;-73
2024/02/10 11:21:39;;;;;;;0.00;0.00;;;;;;;23.49;52.13;97067.22;6310724;22;20010;-73
2024/02/10 11:24:08;;;;;;;0.00;0.00;;;;;;;23.02;55.13;97071.03;6253242;22;20010;-74
2024/02/10 11:26:36;;;;;;;0.00;0.00;;;;;;;22.55;53.26;97066.41;6279821;22;20004;-74
2024/02/10 11:29:06;;;;;;;0.00;0.00;;;;;;;23.55;55.56;97064.69;6308584;22;20005;-74
2024/02/10 11:31:39;;;;;;;0.00;0.00;;;;;;;24.62;51.22;97075.13;6250665;22;20084;-75
2024/02/10 11:34:16;;;;;;;0.00;0.00;;;;;;;26.21;49.14;97067.44;6256517;22;20011;-75
2024/02/10 11:36:53;;;;;;;0.00;0.00;;;;;;;25.59;44.35;97061.06;6277845;22;20094;-74
2024/02/10 11:39:27;;;;;;;0.00;0.00;;;;;;;23.72;47.72;97069.06;6279412;22;20034;-74
2024/02/10 11:42:00;;;;;;;0.00;0.00;;;;;;;21.14;53.42;97062.38;6305290;22;20003;-74
2024/02/10 11:44:28;;;;;;;0.00;0.00;;;;;;;20.15;60.35;97060.38;6306935;22;20027;-72
2024/02/10 11:46:59;;;;;;;0.00;0.00;;;;;;;18.88;63.78;97026.53;6276002;22;20083;-74
2024/02/10 11:49:26;;;;;;;0.00;0.00;;;;;;;18.82;70.61;97051.84;6306079;22;20014;-74
2024/02/10 11:51:57;;;;;;;0.00;0.00;;;;;;;18.52;73.69;97060.66;6253114;22;20372;-74
2024/02/10 11:54:27;;;;;;;0.00;0.00;;;;;;;18.13;71.32;97058.78;6254503;22;20068;-74
2024/02/10 11:56:53;;;;;;;0.00;0.00;;;;;;;17.30;74.94;97060.78;6253658;22;20003;-74
2024/02/10 11:59:19;;;;;;;0.00;0.00;;;;;;;17.43;77.56;97059.22;6276757;22;20114;-74
2024/02/10 12:01:44;;;;;;;0.00;0.00;;;;;;;18.09;71.51;97063.53;6307393;22;20007;-74
2024/02/10 12:04:18;;;;;;;0.00;0.00;;;;;;;17.76;75.58;97040.66;6249701;22;20003;-74
2024/02/10 12:06:48;;;;;;;;;;;;;;;17.61;73.65;97062.00;6307295;22;20008;-74
2024/02/10 12:09:14;;;;;;;0.00;0.00;;;;;;;17.73;74.55;97058.81;6276180;22;19990;-74